• Join FlightAware (Why Join?)
  • Login
  • US Flag 
08:54AM EDT


 

Airport Tracker/Info


-or-


 

Live Flight TrackerFlight Track Log ✈ XOJ722 ✈ 29-Apr-2013 ✈ KTEB - KMEM

Flight Track Log - Related Links

Times and Time Zones

All times are in EDT time to prevent confusion due to time zone crossing. See the XOJ722 flight status page for this flight to view local times or setup timezone preferences in your user account.

Time Position Orientation Groundspeed Altitude Reporting Facility
EDT Latitude Longitude Course Direction KTS MPH feet Rate Location/Type
01:51PM 40.8167 -74.1167 250° West 212 244 1,500  Level New York TRACON
01:52PM 40.8167 -74.2000 270° West 263 303 3,600 3,420 Climbing New York TRACON
01:53PM 40.8167 -74.3000 270° West 261 300 8,400 3,180 Climbing New York TRACON
01:54PM 40.8167 -74.4167 270° West 324 373 10,000 2,400 Climbing New York TRACON
01:56PM 40.6031 -74.9538 250° West  Level Estimated
01:56PM 40.8128 -74.7000 269° West 383 441 15,800  Level New York Center
01:57PM 40.8086 -74.8258 268° West 383 441 17,000 540 Climbing New York Center
01:58PM 40.8033 -74.9792 267° West 409 471 17,000 120 Level New York Center
01:59PM 40.7764 -75.1447 258° West 419 482 17,300 960 Climbing New York Center
02:00PM 40.7364 -75.2681 247° West 419 482 19,000 1,980 Climbing New York Center
02:01PM 40.6664 -75.4058 236° Southwest 409 471 21,200 2,160 Climbing New York Center
02:02PM 40.5931 -75.5239 231° Southwest 417 480 23,400 2,160 Climbing New York Center
02:03PM 40.5194 -75.6442 231° Southwest 422 486 25,600 2,160 Climbing New York Center
02:04PM 40.4475 -75.7672 232° Southwest 427 491 27,800 2,160 Climbing New York Center
02:05PM 40.3736 -75.8872 231° Southwest 432 497 30,000 2,100 Climbing New York Center
02:06PM 40.3022 -75.9964 229° Southwest 432 497 32,100 2,100 Climbing New York Center
02:07PM 40.2258 -76.1183 231° Southwest 437 503 34,300 2,280 Climbing New York Center
02:08PM 40.1467 -76.2536 233° Southwest 432 497 36,700 2,280 Climbing New York Center
02:09PM 40.0781 -76.3811 235° Southwest 426 490 38,900 2,100 Climbing New York Center
02:10PM 40.0242 -76.5069 241° Southwest 421 484 40,900 1,260 Climbing New York Center
02:12PM 39.9389 -76.7983 249° West 410 472 43,000 600 Climbing Washington Center
02:13PM 39.8956 -76.9653 251° West 449 517 43,000  Level Washington Center
02:14PM 39.8539 -77.1214 251° West 456 525 43,000  Level Washington Center
02:15PM 39.8122 -77.2825 251° West 456 525 43,000  Level Washington Center
02:16PM 39.7703 -77.4433 251° West 469 540 43,000  Level Washington Center
02:17PM 39.7261 -77.6069 251° West 474 545 43,000  Level Washington Center
02:18PM 39.6817 -77.7675 250° West 479 551 43,000  Level Washington Center
02:19PM 39.6389 -77.9306 251° West 479 551 43,000  Level Washington Center
02:20PM 39.5961 -78.0961 252° West 484 557 43,000  Level Washington Center
02:21PM 39.5486 -78.2614 250° West 484 557 43,000  Level Washington Center
02:22PM 39.5075 -78.4239 252° West 484 557 43,000  Level Washington Center
02:23PM 39.4597 -78.5861 249° West 484 557 43,000  Level Washington Center
02:24PM 39.4161 -78.7481 251° West 484 557 43,000  Level Washington Center
02:25PM 39.3700 -78.9097 250° West 484 557 43,000  Level Washington Center
02:26PM 39.3258 -79.0689 250° West 479 551 43,000  Level Washington Center
02:27PM 39.2794 -79.2328 250° West 479 551 43,000  Level Washington Center
02:28PM 39.2394 -79.3783 251° West 479 551 43,000  Level Washington Center
02:29PM 39.1925 -79.5444 250° West 479 551 43,000  Level Washington Center
02:30PM 39.1456 -79.7025 249° West 479 551 43,000  Level Washington Center
02:31PM 39.1000 -79.8658 250° West 484 557 43,000  Level Washington Center
02:32PM 39.0525 -80.0261 249° West 484 557 43,000  Level Washington Center
02:33PM 38.9658 -80.3017 248° West 490 564 43,000  Level Indianapolis Center
02:35PM 38.9081 -80.4964 249° West 489 563 43,000  Level Indianapolis Center
02:36PM 38.8600 -80.6581 249° West 484 557 43,000  Level Indianapolis Center
02:37PM 38.8108 -80.8208 249° West 487 560 43,000  Level Indianapolis Center
02:38PM 38.7608 -80.9819 248° West 486 559 43,000  Level Indianapolis Center
02:39PM 38.7122 -81.1433 249° West 485 558 43,000  Level Indianapolis Center
02:40PM 38.6625 -81.3042 248° West 483 556 43,000  Level Indianapolis Center
02:41PM 38.6067 -81.4861 249° West 479 551 43,000  Level Indianapolis Center
02:42PM 38.5619 -81.6314 249° West 480 552 43,000  Level Indianapolis Center
02:43PM 38.5122 -81.7897 248° West 478 550 43,000  Level Indianapolis Center
02:44PM 38.4639 -81.9453 248° West 472 543 43,000  Level Indianapolis Center
02:45PM 38.4044 -82.1311 248° West 470 541 43,000  Level Indianapolis Center
02:46PM 38.3547 -82.2892 248° West 477 549 43,000  Level Indianapolis Center
02:47PM 38.3047 -82.4453 248° West 476 548 43,000  Level Indianapolis Center
02:48PM 38.2525 -82.6069 248° West 479 551 43,000  Level Indianapolis Center
02:49PM 38.2022 -82.7633 248° West 478 550 43,000  Level Indianapolis Center
02:50PM 38.1508 -82.9183 247° West 478 550 43,000  Level Indianapolis Center
02:51PM 38.1003 -83.0717 247° West 474 545 43,000  Level Indianapolis Center
02:52PM 38.0414 -83.2519 248° West 474 545 43,000  Level Indianapolis Center
02:53PM 37.9903 -83.4083 248° West 478 550 43,000  Level Indianapolis Center
02:54PM 37.9378 -83.5625 247° West 479 551 43,000  Level Indianapolis Center
02:55PM 37.8869 -83.7183 248° West 478 550 43,000  Level Indianapolis Center
02:56PM 37.8344 -83.8717 247° West 474 545 43,000  Level Indianapolis Center
02:57PM 37.7728 -84.0517 247° West 479 551 43,000  Level Indianapolis Center
02:58PM 37.7200 -84.2081 247° West 483 556 43,000  Level Indianapolis Center
02:59PM 37.6669 -84.3633 247° West 484 557 43,000  Level Indianapolis Center
03:00PM 37.6133 -84.5197 247° West 486 559 43,000  Level Indianapolis Center
03:01PM 37.5578 -84.6769 246° West 492 566 43,000  Level Indianapolis Center
03:02PM 37.5025 -84.8344 246° West 494 568 43,000  Level Indianapolis Center
03:03PM 37.4386 -85.0189 246° West 494 568 43,000  Level Indianapolis Center
03:04PM 37.3844 -85.1747 246° West 490 564 43,000  Level Indianapolis Center
03:05PM 37.3286 -85.3294 246° West 488 562 43,000  Level Indianapolis Center
03:07PM 37.2742 -85.4850 246° West 487 560 43,000  Level Indianapolis Center
03:08PM 37.2211 -85.6372 246° West 489 563 43,000  Level Indianapolis Center
03:09PM 37.1561 -85.8158 246° West 482 555 43,000  Level Indianapolis Center
03:09PM 37.1078 -85.9533 246° West 489 563 43,000  Level Memphis Center
03:10PM 37.0528 -86.1097 246° West 484 557 43,000  Level Memphis Center
03:11PM 36.9956 -86.2608 245° Southwest 484 557 43,000  Level Memphis Center
03:12PM 36.9358 -86.4144 244° Southwest 489 563 43,000  Level Memphis Center
03:13PM 36.8697 -86.5628 241° Southwest 495 570 43,000 -300 Level Memphis Center
03:14PM 36.8053 -86.7136 242° Southwest 500 575 42,400 -1,560 Descending Memphis Center
03:15PM 36.7428 -86.8589 242° Southwest 487 560 39,900 -2,520 Descending Memphis Center
03:16PM 36.6781 -87.0039 241° Southwest 487 560 37,400 -2,460 Descending Memphis Center
03:17PM 36.6092 -87.1542 240° Southwest 499 574 35,000 -1,200 Descending Memphis Center
03:18PM 36.5400 -87.3094 241° Southwest 504 580 35,000  Level Memphis Center
03:19PM 36.4731 -87.4642 242° Southwest 509 586 35,000  Level Memphis Center
03:20PM 36.4033 -87.6161 240° Southwest 509 586 35,000  Level Memphis Center
03:21PM 36.3339 -87.7706 241° Southwest 509 586 35,000  Level Memphis Center
03:22PM 36.2719 -87.9064 241° Southwest 509 586 35,000 -720 Level Memphis Center
03:23PM 36.2058 -88.0550 241° Southwest 504 580 33,600 -1,800 Descending Memphis Center
03:24PM 36.1378 -88.2033 240° Southwest 480 552 31,500 660 Descending Memphis Center
03:25PM 36.0753 -88.3333 239° Southwest 460 529 35,000 -2,340 Climbing Memphis Center
03:26PM 36.0147 -88.4631 240° Southwest 452 520 26,900 -5,160 Descending Memphis Center
03:27PM 35.9561 -88.5875 240° Southwest 440 506 24,700 -2,220 Descending Memphis Center
03:28PM 35.9014 -88.7067 240° Southwest 425 489 22,500 -2,160 Descending Memphis Center
03:29PM 35.8467 -88.8256 240° Southwest 412 474 20,400 -2,100 Descending Memphis Center
03:30PM 35.7917 -88.9342 238° Southwest 394 453 18,400 -1,980 Descending Memphis Center
03:31PM 35.7344 -89.0400 236° Southwest 387 445 16,500 -1,800 Descending Memphis Center
03:32PM 35.6833 -89.1275 234° Southwest 368 423 14,900 -1,800 Descending Memphis Center
03:33PM 35.6194 -89.2128 227° Southwest 344 396 12,900 -1,800 Descending Memphis Center
03:34PM 35.5617 -89.2878 227° Southwest 314 361 11,300 -1,440 Descending Memphis Center
03:35PM 35.5039 -89.3650 227° Southwest 295 339 10,100 -1,080 Descending Memphis Center
03:36PM 35.4650 -89.4419 238° Southwest 283 326 9,200 -1,380 Descending Memphis Center
03:37PM 35.4258 -89.5136 236° Southwest 272 313 7,400 -1,800 Descending Memphis Center
03:38PM 35.3908 -89.5956 242° Southwest 272 313 5,600 -1,740 Descending Memphis Center
03:39PM 35.3558 -89.6619 237° Southwest 259 298 4,000 -840 Descending Memphis Center
03:40PM 35.3228 -89.7258 238° Southwest 235 270 4,000 -300 Level Memphis Center
03:41PM 35.2939 -89.7897 241° Southwest 223 257 3,500 -540 Descending Memphis Center
03:42PM 35.2628 -89.8536 239° Southwest 223 257 3,000 -300 Descending Memphis Center
03:43PM 35.2403 -89.9072 243° Southwest 200 230 3,000  Level Memphis Center
03:44PM 35.2153 -89.9556 238° Southwest 183 211 3,000  Level Memphis Center
03:45PM 35.2000 -89.9667 211° Southwest 167 192 3,000 -360 Level KMEM
03:46PM 35.1667 -89.9667 180° South 173 199 2,600 -780 Descending KMEM
03:47PM 35.1000 -89.9667 180° South 167 192 1,400 -840 Descending KMEM
03:48PM 35.0667 -89.9667 180° South 121 139 700 -660 Descending KMEM
03:50PM 35.0424 -89.9767 164° South  Level Estimated
03:57PM 35.0424 -89.9767 345° North  Level Estimated
03:58PM 35.0424 -89.9767 345° North  Level Estimated
03:59PM 35.0424 -89.9767 345° North  Level Estimated
04:00PM 35.0424 -89.9767 345° North  Level Estimated
04:01PM 35.0424 -89.9767 345° North  Level Estimated
04:02PM 35.0424 -89.9767 345° North  Level Estimated
04:03PM 35.0424 -89.9767 345° North  Level Estimated
04:04PM 35.0424 -89.9767 345° North  Level Estimated
04:05PM 35.0424 -89.9767 345° North  Level Estimated
04:06PM 35.0424 -89.9767 345° North  Level Estimated
04:07PM 35.0424 -89.9767 345° North  Level Estimated
04:08PM 35.0424 -89.9767 345° North  Level Estimated
04:09PM 35.0424 -89.9767 345° North  Level Estimated
04:10PM 35.0424 -89.9767 345° North  Level Estimated
04:11PM 35.0424 -89.9767 345° North  Level Estimated